Time;durP1;ratioP1;P1;durP2;ratioP2;P2;SDS_P1;SDS_P2;PMS_P1;PMS_P2;Temp;Humidity;BMP_temperature;BMP_pressure;BME280_temperature;BME280_humidity;BME280_pressure;Samples;Min_cycle;Max_cycle;Signal;HPM_P1;HPM_P2
2022/11/22 00:00:17;;;;;;;0.60;0.60;;;;;;;4.30;90.29;94938.56;29395;215;63004;-56
2022/11/22 00:00:48;;;;;;;0.50;0.50;;;;;;;4.29;90.47;94942.34;29395;196;63008;-57
2022/11/22 00:01:20;;;;;;;0.60;0.60;;;;;;;4.27;90.09;94942.63;29395;230;63011;-57
2022/11/22 00:01:55;;;;;;;0.60;0.60;;;;;;;4.28;90.40;94941.53;29395;202;63009;-70
2022/11/22 00:02:26;;;;;;;0.60;0.60;;;;;;;4.29;90.24;94934.28;29395;206;63005;-57
2022/11/22 00:02:57;;;;;;;0.60;0.60;;;;;;;4.32;90.19;94934.47;29395;199;63009;-57
2022/11/22 00:03:29;;;;;;;1.17;1.17;;;;;;;4.32;90.06;94939.84;29394;204;64009;-56
2022/11/22 00:04:00;;;;;;;0.60;0.60;;;;;;;4.35;89.93;94925.03;29395;251;63009;-57
2022/11/22 00:04:31;;;;;;;0.60;0.60;;;;;;;4.38;89.53;94927.13;29395;257;63007;-57
2022/11/22 00:05:03;;;;;;;0.60;0.60;;;;;;;4.37;89.77;94930.91;29395;249;63005;-57
2022/11/22 00:05:35;;;;;;;0.60;0.60;;;;;;;4.37;89.58;94926.31;29395;202;63004;-57
2022/11/22 00:06:06;;;;;;;0.60;0.60;;;;;;;4.39;89.62;94926.03;29395;224;63022;-57
2022/11/22 00:06:37;;;;;;;0.50;0.50;;;;;;;4.39;89.11;94928.72;29395;224;63004;-56
2022/11/22 00:07:09;;;;;;;0.57;0.57;;;;;;;4.37;89.63;94930.91;29395;283;63009;-58
2022/11/22 00:07:40;;;;;;;0.60;0.60;;;;;;;4.38;89.39;94921.75;29395;242;63010;-58
2022/11/22 00:08:13;;;;;;;0.50;0.50;;;;;;;4.45;88.94;94922.13;29394;215;64013;-57
2022/11/22 00:08:44;;;;;;;0.60;0.60;;;;;;;4.46;88.91;94926.41;29395;265;63005;-56
2022/11/22 00:09:16;;;;;;;0.60;0.60;;;;;;;4.50;88.83;94918.56;29395;239;63009;-57
2022/11/22 00:09:47;;;;;;;0.52;0.52;;;;;;;4.49;88.51;94925.03;29395;228;63005;-57
2022/11/22 00:10:19;;;;;;;0.50;0.50;;;;;;;4.46;88.54;94921.03;29395;211;63009;-58
2022/11/22 00:10:50;;;;;;;0.55;0.55;;;;;;;4.45;88.52;94911.41;29395;208;63005;-57
2022/11/22 00:11:22;;;;;;;0.60;0.60;;;;;;;4.45;88.93;94911.41;29395;196;63009;-56
2022/11/22 00:11:55;;;;;;;0.60;0.60;;;;;;;4.45;89.06;94915.97;29394;210;64009;-56
2022/11/22 00:12:26;;;;;;;0.60;0.60;;;;;;;4.45;88.79;94914.09;29395;196;63009;-57
2022/11/22 00:12:59;;;;;;;0.60;0.60;;;;;;;4.45;88.76;94908.72;29395;208;63004;-57
2022/11/22 00:13:30;;;;;;;0.60;0.60;;;;;;;4.47;89.13;94909.22;29395;218;63009;-56
2022/11/22 00:14:01;;;;;;;0.50;0.50;;;;;;;4.48;88.90;94905.44;29393;222;64009;-67
2022/11/22 00:14:33;;;;;;;0.50;0.50;;;;;;;4.52;88.54;94901.00;29395;306;63009;-57
2022/11/22 00:15:05;;;;;;;0.60;0.60;;;;;;;4.54;88.02;94906.88;29395;234;63004;-57
2022/11/22 00:15:36;;;;;;;0.50;0.50;;;;;;;4.55;88.29;94902.31;29395;206;63008;-57
2022/11/22 00:16:08;;;;;;;0.60;0.60;;;;;;;4.54;88.06;94906.88;29395;196;63004;-57
2022/11/22 00:16:39;;;;;;;0.50;0.50;;;;;;;4.54;88.27;94909.56;29395;215;63009;-57
2022/11/22 00:17:10;;;;;;;0.60;0.60;;;;;;;4.55;88.10;94905.78;29395;223;63005;-57
2022/11/22 00:17:41;;;;;;;0.50;0.50;;;;;;;4.58;88.16;94913.25;29395;299;63009;-67
2022/11/22 00:18:12;;;;;;;0.60;0.60;;;;;;;4.59;88.15;94912.13;29395;238;63005;-57
2022/11/22 00:18:43;;;;;;;0.60;0.60;;;;;;;4.57;88.14;94903.59;29395;305;63009;-57
2022/11/22 00:19:15;;;;;;;0.60;0.60;;;;;;;4.56;88.45;94906.56;29394;203;64009;-58
2022/11/22 00:19:47;;;;;;;0.60;0.60;;;;;;;4.58;88.22;94904.38;29394;202;64009;-57
2022/11/22 00:20:20;;;;;;;0.55;0.55;;;;;;;4.62;88.42;94903.47;29395;260;63004;-57
2022/11/22 00:20:51;;;;;;;0.60;0.60;;;;;;;4.69;87.72;94903.84;29395;235;63009;-57
2022/11/22 00:21:26;;;;;;;0.50;0.50;;;;;;;4.72;87.66;94905.94;29395;203;63004;-58
2022/11/22 00:21:57;;;;;;;0.60;0.60;;;;;;;4.71;87.38;94898.97;29395;201;63009;-57
2022/11/22 00:22:31;;;;;;;0.60;0.60;;;;;;;4.72;87.20;94903.25;29395;199;63004;-59
2022/11/22 00:23:02;;;;;;;0.60;0.60;;;;;;;4.68;87.13;94899.59;29395;211;63008;-57
2022/11/22 00:23:34;;;;;;;0.60;0.60;;;;;;;4.69;86.99;94901.19;29395;247;63004;-57
2022/11/22 00:24:06;;;;;;;0.60;0.60;;;;;;;4.74;87.34;94902.16;29395;238;63009;-57
2022/11/22 00:24:37;;;;;;;0.73;0.73;;;;;;;4.74;87.07;94902.94;29394;206;64009;-57
2022/11/22 00:25:09;;;;;;;0.60;0.60;;;;;;;4.74;87.12;94896.78;29395;244;63009;-58
2022/11/22 00:25:40;;;;;;;0.80;0.80;;;;;;;4.73;86.96;94896.00;29395;402;63005;-65
2022/11/22 00:26:11;;;;;;;0.70;0.70;;;;;;;4.75;87.39;94893.78;29395;202;63009;-57
2022/11/22 00:26:43;;;;;;;0.60;0.60;;;;;;;4.73;86.76;94898.69;29395;265;63005;-57
2022/11/22 00:27:14;;;;;;;0.60;0.60;;;;;;;4.77;87.10;94899.66;29395;238;63009;-58
2022/11/22 00:27:45;;;;;;;0.82;0.82;;;;;;;4.78;87.14;94903.16;29395;225;63004;-58
2022/11/22 00:28:17;;;;;;;0.60;0.60;;;;;;;4.76;86.86;94895.37;29395;313;63028;-58
2022/11/22 00:28:49;;;;;;;0.70;0.70;;;;;;;4.71;86.66;94898.97;29395;215;63004;-57
2022/11/22 00:29:22;;;;;;;0.68;0.68;;;;;;;4.66;87.32;94901.78;29395;259;63009;-57
2022/11/22 00:29:53;;;;;;;0.60;0.60;;;;;;;4.67;87.31;94907.94;29394;235;64008;-57
2022/11/22 00:30:24;;;;;;;0.60;0.60;;;;;;;4.65;87.59;94902.87;29395;361;63008;-57
2022/11/22 00:30:55;;;;;;;0.60;0.60;;;;;;;4.64;87.36;94903.97;29395;202;63005;-58
2022/11/22 00:31:27;;;;;;;0.60;0.60;;;;;;;4.65;87.39;94902.09;29394;197;64014;-68
2022/11/22 00:31:58;;;;;;;0.60;0.60;;;;;;;4.64;87.29;94903.19;29395;216;63015;-57
2022/11/22 00:32:29;;;;;;;0.60;0.60;;;;;;;4.67;87.35;94903.38;29394;366;64009;-57
2022/11/22 00:33:01;;;;;;;0.60;0.60;;;;;;;4.68;87.11;94904.97;29395;244;63005;-57
2022/11/22 00:33:35;;;;;;;0.85;0.85;;;;;;;4.68;87.08;94904.97;29395;265;63009;-57
2022/11/22 00:34:07;;;;;;;0.60;0.60;;;;;;;4.69;87.20;94911.13;29394;284;64009;-65
2022/11/22 00:34:39;;;;;;;0.60;0.60;;;;;;;4.68;87.09;94910.34;29395;234;63009;-58
2022/11/22 00:35:11;;;;;;;0.52;0.52;;;;;;;4.70;86.80;94910.81;29395;231;63004;-57
2022/11/22 00:35:45;;;;;;;0.60;0.60;;;;;;;4.68;87.24;94910.34;29395;203;63009;-57
2022/11/22 00:36:16;;;;;;;0.55;0.55;;;;;;;4.70;87.16;94910.81;29395;202;63004;-57
2022/11/22 00:36:47;;;;;;;0.60;0.60;;;;;;;4.69;86.94;94906.53;29395;202;63009;-57
2022/11/22 00:37:18;;;;;;;0.60;0.60;;;;;;;4.69;87.07;94911.13;29394;228;64008;-57
2022/11/22 00:37:50;;;;;;;0.70;0.70;;;;;;;4.75;87.16;94909.13;29395;227;63004;-57
2022/11/22 00:38:21;;;;;;;0.60;0.60;;;;;;;4.75;86.75;94911.81;29395;223;63005;-57
2022/11/22 00:38:52;;;;;;;1.15;1.15;;;;;;;4.75;86.55;94909.13;29394;260;64014;-57
2022/11/22 00:39:23;;;;;;;0.60;0.60;;;;;;;4.78;86.88;94913.88;29394;265;64005;-57
2022/11/22 00:39:55;;;;;;;0.60;0.60;;;;;;;4.75;86.95;94911.81;29395;198;63009;-59
2022/11/22 00:40:26;;;;;;;0.77;0.77;;;;;;;4.77;86.95;94907.72;29395;202;63005;-57
2022/11/22 00:40:58;;;;;;;0.60;0.60;;;;;;;4.78;86.94;94913.88;29395;239;63009;-68
2022/11/22 00:41:29;;;;;;;0.57;0.57;;;;;;;4.76;87.11;94916.09;29394;212;64009;-57
2022/11/22 00:42:00;;;;;;;0.60;0.60;;;;;;;4.76;87.13;94914.19;29395;236;63009;-57
2022/11/22 00:42:32;;;;;;;0.50;0.50;;;;;;;4.75;87.05;94906.44;29395;203;63004;-58
2022/11/22 00:43:03;;;;;;;0.50;0.50;;;;;;;4.76;87.33;94911.50;29395;206;63009;-57
2022/11/22 00:43:34;;;;;;;0.60;0.60;;;;;;;4.75;87.15;94911.81;29395;218;63004;-57
2022/11/22 00:44:05;;;;;;;0.60;0.60;;;;;;;4.72;87.12;94908.63;29395;275;63009;-57
2022/11/22 00:44:37;;;;;;;0.60;0.60;;;;;;;4.71;87.27;94908.94;29395;236;63004;-58
2022/11/22 00:45:09;;;;;;;0.50;0.50;;;;;;;4.70;87.28;94913.50;29395;220;63008;-57
2022/11/22 00:45:41;;;;;;;0.60;0.60;;;;;;;4.68;87.40;94909.53;29395;198;63005;-59
2022/11/22 00:46:13;;;;;;;0.70;0.70;;;;;;;4.70;87.38;94908.13;29395;204;63009;-57
2022/11/22 00:46:44;;;;;;;0.60;0.60;;;;;;;4.69;87.98;94911.13;29394;228;64009;-58
2022/11/22 00:47:15;;;;;;;0.70;0.70;;;;;;;4.69;87.74;94911.91;29395;204;63009;-57
2022/11/22 00:47:50;;;;;;;0.70;0.70;;;;;;;4.68;87.63;94915.69;29394;204;64009;-57
2022/11/22 00:48:21;;;;;;;0.60;0.60;;;;;;;4.68;88.08;94914.91;29395;210;63009;-57
2022/11/22 00:48:52;;;;;;;0.98;0.98;;;;;;;4.70;87.52;94918.88;29395;216;63005;-58
2022/11/22 00:49:23;;;;;;;0.57;0.57;;;;;;;4.71;87.77;94925.84;29394;227;64009;-57
2022/11/22 00:49:55;;;;;;;0.60;0.60;;;;;;;4.69;87.88;94919.97;29395;202;63004;-57
2022/11/22 00:50:26;;;;;;;0.60;0.60;;;;;;;4.70;88.00;94918.09;29395;210;63009;-58
2022/11/22 00:50:57;;;;;;;3.37;3.15;;;;;;;4.69;88.06;94929.94;29395;215;63004;-57
2022/11/22 00:51:28;;;;;;;0.60;0.60;;;;;;;4.71;87.94;94919.69;29394;211;64013;-57
2022/11/22 00:52:00;;;;;;;0.60;0.60;;;;;;;4.74;88.11;94929.03;29394;215;64009;-57
2022/11/22 00:52:31;;;;;;;0.70;0.70;;;;;;;4.76;87.84;94927.63;29395;271;63008;-58
2022/11/22 00:53:03;;;;;;;0.60;0.60;;;;;;;4.77;87.63;94923.03;29395;202;63005;-57
2022/11/22 00:53:38;;;;;;;0.50;0.50;;;;;;;4.79;87.57;94926.22;29395;237;63009;-56
2022/11/22 00:54:09;;;;;;;0.60;0.60;;;;;;;4.79;87.51;94920.84;29395;237;63005;-57
2022/11/22 00:54:41;;;;;;;0.50;0.50;;;;;;;4.77;87.50;94929.22;29395;204;63009;-57
2022/11/22 00:55:13;;;;;;;0.50;0.50;;;;;;;4.76;87.28;94924.94;29395;202;63005;-57
2022/11/22 00:55:45;;;;;;;0.60;0.60;;;;;;;4.74;87.55;94929.03;29395;218;63009;-57
2022/11/22 00:56:16;;;;;;;0.50;0.50;;;;;;;4.70;87.62;94929.62;29395;211;63013;-58
2022/11/22 00:56:47;;;;;;;0.57;0.57;;;;;;;4.74;88.00;94935.19;29395;208;63014;-69
2022/11/22 00:57:18;;;;;;;0.50;0.50;;;;;;;4.74;87.53;94935.19;29394;243;64009;-57
2022/11/22 00:57:51;;;;;;;0.60;0.60;;;;;;;4.74;88.05;94931.72;29395;219;63009;-57
2022/11/22 00:58:23;;;;;;;0.60;0.60;;;;;;;4.72;87.66;94935.50;29395;230;63013;-57
2022/11/22 00:58:57;;;;;;;0.60;0.60;;;;;;;4.78;87.53;94940.75;29395;204;63009;-58
2022/11/22 00:59:29;;;;;;;0.60;0.60;;;;;;;4.76;87.41;94937.56;29395;210;63004;-57
2022/11/22 01:00:01;;;;;;;0.60;0.60;;;;;;;4.78;87.66;94940.75;29395;383;63011;-57
2022/11/22 01:00:34;;;;;;;0.60;0.60;;;;;;;4.77;87.58;94944.53;29395;226;63004;-69
2022/11/22 01:01:08;;;;;;;0.60;0.60;;;;;;;4.74;87.80;94950.53;29395;250;63009;-57
2022/11/22 01:01:39;;;;;;;0.57;0.57;;;;;;;4.72;87.98;94950.81;29395;282;63005;-57
2022/11/22 01:02:11;;;;;;;0.60;0.60;;;;;;;4.67;88.29;94949.03;29394;203;64014;-57
2022/11/22 01:02:42;;;;;;;0.60;0.60;;;;;;;4.64;88.21;94952.31;29395;240;63005;-64
2022/11/22 01:03:13;;;;;;;0.80;0.80;;;;;;;4.65;88.69;94950.44;29395;202;63009;-57
2022/11/22 01:03:45;;;;;;;0.60;0.60;;;;;;;4.62;88.73;94949.16;29395;234;63005;-69
2022/11/22 01:04:25;;;;;;;0.50;0.50;;;;;;;4.59;88.96;94949.75;29394;249;64013;-57
2022/11/22 01:04:57;;;;;;;0.60;0.60;;;;;;;4.58;88.82;94958.09;29417;197;63004;-57
2022/11/22 01:05:30;;;;;;;0.60;0.60;;;;;;;4.62;89.03;94954.50;29395;200;63009;-57
2022/11/22 01:06:02;;;;;;;0.60;0.60;;;;;;;4.66;88.95;94960.09;29395;206;63004;-57
2022/11/22 01:06:34;;;;;;;0.60;0.60;;;;;;;4.67;89.07;94956.31;29395;197;63009;-56
2022/11/22 01:07:05;;;;;;;0.50;0.50;;;;;;;4.67;88.73;94957.09;29395;233;63004;-57
2022/11/22 01:07:37;;;;;;;0.60;0.60;;;;;;;4.67;88.72;94954.41;29395;221;63008;-57
2022/11/22 01:08:08;;;;;;;0.60;0.60;;;;;;;4.68;88.30;94963.25;29395;221;63004;-67
2022/11/22 01:08:39;;;;;;;0.60;0.60;;;;;;;4.70;89.02;94955.69;29395;220;63009;-57
2022/11/22 01:09:18;;;;;;;0.60;0.60;;;;;;;4.71;88.34;94963.47;29394;228;64009;-56
2022/11/22 01:09:49;;;;;;;0.60;0.60;;;;;;;4.68;88.52;94956.00;29395;213;63009;-55
2022/11/22 01:10:20;;;;;;;0.60;0.60;;;;;;;4.73;88.43;94965.84;29395;207;63011;-57
2022/11/22 01:10:59;;;;;;;0.52;0.52;;;;;;;4.69;88.56;94965.66;29395;207;63009;-56
2022/11/22 01:11:30;;;;;;;0.60;0.60;;;;;;;4.67;88.67;94972.41;29394;222;64009;-57
2022/11/22 01:12:02;;;;;;;0.60;0.60;;;;;;;4.68;88.72;94974.81;29395;285;63009;-68
2022/11/22 01:12:36;;;;;;;0.80;0.80;;;;;;;4.68;88.61;94974.81;29395;204;63016;-57
2022/11/22 01:13:14;;;;;;;0.60;0.60;;;;;;;4.68;88.82;94964.06;29395;206;63009;-66
2022/11/22 01:13:46;;;;;;;0.60;0.60;;;;;;;4.70;88.51;94969.94;29395;202;63017;-58
2022/11/22 01:14:18;;;;;;;0.50;0.50;;;;;;;4.71;88.84;94968.84;29395;215;63009;-68
2022/11/22 01:14:49;;;;;;;0.60;0.60;;;;;;;4.74;88.64;94961.25;29395;242;63004;-57
2022/11/22 01:15:22;;;;;;;0.60;0.60;;;;;;;4.77;88.60;94966.84;29395;214;63008;-57
2022/11/22 01:15:57;;;;;;;3.10;2.90;;;;;;;4.78;88.03;94956.88;29395;306;63005;-58
2022/11/22 01:16:28;;;;;;;0.60;0.60;;;;;;;4.77;88.35;94971.41;29395;210;63009;-57
2022/11/22 01:17:00;;;;;;;0.60;0.60;;;;;;;4.81;88.23;94961.66;29394;319;64009;-64
2022/11/22 01:17:31;;;;;;;0.60;0.60;;;;;;;4.81;88.10;94964.34;29395;276;63009;-57
2022/11/22 01:18:03;;;;;;;0.50;0.50;;;;;;;4.82;88.03;94961.34;29395;210;63005;-57
2022/11/22 01:18:35;;;;;;;0.50;0.50;;;;;;;4.84;87.93;94961.03;29395;220;63009;-57
2022/11/22 01:19:06;;;;;;;0.50;0.50;;;;;;;4.83;87.72;94962.16;29395;202;63004;-57
2022/11/22 01:19:41;;;;;;;0.60;0.60;;;;;;;4.86;87.96;94961.50;29395;221;63009;-57
2022/11/22 01:20:12;;;;;;;0.60;0.60;;;;;;;4.84;88.37;94961.03;29395;309;63004;-58
2022/11/22 01:20:44;;;;;;;0.60;0.60;;;;;;;4.83;87.91;94956.78;29394;203;64013;-57
2022/11/22 01:21:15;;;;;;;0.60;0.60;;;;;;;4.84;87.65;94967.22;29395;207;63000;-57
2022/11/22 01:21:49;;;;;;;0.60;0.60;;;;;;;4.85;87.67;94960.72;29395;199;63008;-57
2022/11/22 01:22:20;;;;;;;0.60;0.60;;;;;;;4.84;87.59;94961.84;29395;196;63004;-57
2022/11/22 01:22:52;;;;;;;0.60;0.60;;;;;;;4.86;87.51;94969.56;29395;253;63024;-57
2022/11/22 01:23:23;;;;;;;0.60;0.60;;;;;;;4.86;87.78;94961.50;29395;197;63005;-57
2022/11/22 01:23:55;;;;;;;0.60;0.60;;;;;;;4.86;88.25;94969.56;29394;223;64014;-57
2022/11/22 01:24:26;;;;;;;0.50;0.50;;;;;;;4.86;87.93;94977.63;29395;210;63014;-58
2022/11/22 01:24:57;;;;;;;0.60;0.60;;;;;;;4.84;88.12;94969.09;29395;210;63020;-57
2022/11/22 01:25:32;;;;;;;0.60;0.60;;;;;;;4.84;88.33;94977.16;29395;214;63005;-57
2022/11/22 01:26:07;;;;;;;7.65;2.78;;;;;;;4.87;88.57;94971.16;29395;199;63009;-59
2022/11/22 01:26:41;;;;;;;0.60;0.60;;;;;;;4.85;88.45;94970.69;29395;197;63004;-70
2022/11/22 01:27:13;;;;;;;0.60;0.60;;;;;;;4.82;88.76;94980.16;29395;197;63012;-71
2022/11/22 01:27:44;;;;;;;0.60;0.60;;;;;;;4.80;88.58;94970.81;29395;198;63004;-68
2022/11/22 01:28:16;;;;;;;0.57;0.57;;;;;;;4.81;88.76;94980.47;29395;302;63016;-57
2022/11/22 01:28:47;;;;;;;0.60;0.60;;;;;;;4.81;89.09;94975.09;29395;237;63004;-57
2022/11/22 01:29:18;;;;;;;0.60;0.60;;;;;;;4.83;88.92;94978.25;29394;210;64013;-57
2022/11/22 01:29:50;;;;;;;0.60;0.60;;;;;;;4.82;88.69;94969.41;29395;227;63004;-58
2022/11/22 01:30:21;;;;;;;0.93;0.93;;;;;;;4.84;89.23;94980.66;29395;247;63009;-58
2022/11/22 01:30:53;;;;;;;0.60;0.60;;;;;;;4.80;89.25;94979.66;29394;205;64009;-57
2022/11/22 01:31:24;;;;;;;0.60;0.60;;;;;;;4.76;89.52;94972.50;29395;216;63009;-57
2022/11/22 01:31:56;;;;;;;0.60;0.60;;;;;;;4.78;89.54;94973.00;29395;209;63005;-58
2022/11/22 01:32:27;;;;;;;8.40;5.80;;;;;;;4.80;89.39;94973.50;29395;212;63009;-58
2022/11/22 01:32:59;;;;;;;0.60;0.60;;;;;;;4.81;89.42;94967.81;29395;309;63005;-57
2022/11/22 01:33:31;;;;;;;0.65;0.65;;;;;;;4.79;89.65;94971.91;29395;203;63009;-57
2022/11/22 01:34:04;;;;;;;0.60;0.60;;;;;;;4.77;89.72;94976.78;29394;291;64009;-57
2022/11/22 01:34:35;;;;;;;0.50;0.50;;;;;;;4.77;89.84;94976.78;29395;206;63009;-56
2022/11/22 01:35:08;;;;;;;0.60;0.60;;;;;;;4.78;89.88;94973.00;29395;238;63017;-57
2022/11/22 01:35:39;;;;;;;0.60;0.60;;;;;;;4.78;89.70;94979.16;29395;243;63009;-57
2022/11/22 01:36:10;;;;;;;0.52;0.52;;;;;;;4.78;89.55;94981.06;29395;225;63004;-68
2022/11/22 01:36:43;;;;;;;0.60;0.60;;;;;;;4.76;90.24;94975.19;29395;251;63014;-67
2022/11/22 01:37:15;;;;;;;0.50;0.50;;;;;;;4.74;90.34;94980.88;29394;214;64008;-57
2022/11/22 01:37:46;;;;;;;0.55;0.55;;;;;;;4.74;90.30;94977.38;29394;203;64014;-57
2022/11/22 01:38:18;;;;;;;0.60;0.60;;;;;;;4.75;90.81;94978.97;29395;228;63005;-57
2022/11/22 01:38:49;;;;;;;0.60;0.60;;;;;;;4.76;90.84;94970.63;29395;413;63009;-56
2022/11/22 01:39:20;;;;;;;0.50;0.50;;;;;;;4.79;90.72;94969.22;29395;318;63005;-57
2022/11/22 01:39:51;;;;;;;0.50;0.50;;;;;;;4.82;90.87;94968.63;29395;264;63009;-67
2022/11/22 01:40:22;;;;;;;0.60;0.60;;;;;;;4.85;90.13;94976.06;29395;236;63005;-56
2022/11/22 01:40:54;;;;;;;0.60;0.60;;;;;;;4.86;90.35;94974.94;29395;255;63017;-56
2022/11/22 01:41:26;;;;;;;1.25;1.25;;;;;;;4.88;90.32;94970.06;29394;220;64009;-55
2022/11/22 01:41:58;;;;;;;0.50;0.50;;;;;;;4.86;90.04;94967.69;29395;208;63009;-57
2022/11/22 01:42:45;;;;;;;0.57;0.57;;;;;;;4.84;90.18;94961.84;29395;276;63010;-58
2022/11/22 01:43:20;;;;;;;0.60;0.60;;;;;;;4.86;90.10;94958.81;29395;261;63009;-57
2022/11/22 01:43:52;;;;;;;0.60;0.60;;;;;;;4.84;90.07;94961.03;29395;215;63004;-57
2022/11/22 01:44:31;;;;;;;0.50;0.50;;;;;;;4.84;89.92;94972.59;29395;220;63004;-57
2022/11/22 01:45:37;;;;;;;0.60;0.60;;;;;;;4.89;89.78;94963.59;29395;202;63009;-57
2022/11/22 01:46:33;;;;;;;0.60;0.60;;;;;;;4.85;89.73;94963.41;29395;234;63009;-70
2022/11/22 01:47:13;;;;;;;1.50;1.50;;;;;;;4.86;89.75;94958.81;29394;227;64013;-57
2022/11/22 01:47:44;;;;;;;0.60;0.60;;;;;;;4.87;89.86;94961.22;29395;255;63005;-57
2022/11/22 01:48:53;;;;;;;0.60;0.60;;;;;;;4.82;89.75;94969.41;29395;202;63009;-57
2022/11/22 01:49:32;;;;;;;0.50;0.50;;;;;;;4.79;89.80;94963.84;29395;202;63011;-57
2022/11/22 01:50:06;;;;;;;0.60;0.60;;;;;;;4.80;90.16;94968.13;29395;294;63009;-56
2022/11/22 01:50:40;;;;;;;0.60;0.60;;;;;;;4.83;90.27;94960.25;29395;211;63000;-57
2022/11/22 01:51:36;;;;;;;0.52;0.52;;;;;;;4.88;89.86;94962.00;29395;222;63008;-58
2022/11/22 01:52:33;;;;;;;0.60;0.60;;;;;;;4.86;89.69;94956.13;29394;230;64009;-56
2022/11/22 01:53:16;;;;;;;0.60;0.60;;;;;;;4.88;89.98;94962.00;29394;205;64014;-57
2022/11/22 01:53:48;;;;;;;0.60;0.60;;;;;;;4.86;90.04;94964.19;29395;203;63005;-57
2022/11/22 01:54:24;;;;;;;0.60;0.60;;;;;;;4.87;90.01;94955.03;29395;197;63009;-56
2022/11/22 01:55:01;;;;;;;0.60;0.60;;;;;;;4.86;89.90;94964.19;29395;196;63013;-66
2022/11/22 01:55:34;;;;;;;0.60;0.60;;;;;;;4.91;90.08;94969.47;29395;313;63017;-57
2022/11/22 01:56:11;;;;;;;0.60;0.60;;;;;;;4.90;90.18;94971.34;29395;311;63004;-57
2022/11/22 01:56:49;;;;;;;0.60;0.60;;;;;;;4.90;90.06;94968.66;29395;307;63009;-57
2022/11/22 01:57:27;;;;;;;0.50;0.50;;;;;;;4.88;90.12;94972.75;29394;216;64009;-57
2022/11/22 01:58:00;;;;;;;0.90;0.90;;;;;;;4.88;89.92;94972.75;29395;218;63009;-57
2022/11/22 01:58:33;;;;;;;0.60;0.60;;;;;;;4.85;89.99;94973.38;29395;218;63004;-57
2022/11/22 01:59:12;;;;;;;0.60;0.60;;;;;;;4.81;90.69;94977.78;29395;213;63008;-67
2022/11/22 01:59:49;;;;;;;0.50;0.50;;;;;;;4.79;90.40;94974.59;29394;204;64009;-57
2022/11/22 02:00:21;;;;;;;0.60;0.60;;;;;;;4.84;90.66;94977.16;29395;251;63009;-70
2022/11/22 02:00:53;;;;;;;0.60;0.60;;;;;;;4.83;90.58;94972.88;29395;309;63005;-57
2022/11/22 02:01:26;;;;;;;0.50;0.50;;;;;;;4.82;90.75;94968.63;29395;218;63009;-57
2022/11/22 02:02:00;;;;;;;0.60;0.60;;;;;;;4.85;90.59;94973.38;29395;205;63011;-57
2022/11/22 02:02:34;;;;;;;0.60;0.60;;;;;;;4.85;90.32;94973.38;29394;206;64013;-58
2022/11/22 02:03:08;;;;;;;0.60;0.60;;;;;;;4.84;90.46;94972.59;29395;222;63005;-57
2022/11/22 02:03:45;;;;;;;0.60;0.60;;;;;;;4.81;90.40;94977.78;29395;218;63013;-70
2022/11/22 02:04:18;;;;;;;0.60;0.60;;;;;;;4.81;90.81;94977.78;29394;231;64009;-71
2022/11/22 02:04:51;;;;;;;0.60;0.60;;;;;;;4.82;90.97;94974.78;29395;286;63009;-57
2022/11/22 02:05:26;;;;;;;0.60;0.60;;;;;;;4.82;90.96;94972.09;29395;196;63004;-57
2022/11/22 02:05:58;;;;;;;0.55;0.55;;;;;;;4.85;90.84;94976.06;29395;235;63009;-57
2022/11/22 02:06:49;;;;;;;0.60;0.60;;;;;;;4.85;90.71;94984.13;29395;235;63004;-57
2022/11/22 02:07:26;;;;;;;0.60;0.60;;;;;;;4.84;90.86;94977.16;29394;256;64014;-57
2022/11/22 02:08:09;;;;;;;0.60;0.60;;;;;;;4.83;90.68;94980.94;29395;202;63005;-57
2022/11/22 02:08:56;;;;;;;0.60;0.60;;;;;;;4.81;90.82;94980.47;29395;202;63009;-57
2022/11/22 02:09:29;;;;;;;0.60;0.60;;;;;;;4.80;90.96;94982.34;29394;203;64009;-56
2022/11/22 02:10:00;;;;;;;0.60;0.60;;;;;;;4.79;91.12;94988.03;29395;205;63021;-56
2022/11/22 02:10:36;;;;;;;0.50;0.50;;;;;;;4.78;91.20;94978.37;29395;206;63005;-57
2022/11/22 02:11:10;;;;;;;0.60;0.60;;;;;;;4.77;91.15;94982.16;29394;215;64013;-57
2022/11/22 02:11:47;;;;;;;0.60;0.60;;;;;;;4.76;91.15;94985.94;29395;215;63004;-57
2022/11/22 02:12:25;;;;;;;0.50;0.50;;;;;;;4.80;91.17;94985.03;29394;248;64013;-57
2022/11/22 02:12:58;;;;;;;0.60;0.60;;;;;;;4.82;91.09;94984.75;29395;230;63004;-57
2022/11/22 02:13:34;;;;;;;0.60;0.60;;;;;;;4.81;91.15;94981.25;29395;355;63009;-57
2022/11/22 02:14:08;;;;;;;0.60;0.60;;;;;;;4.80;91.43;94976.97;29395;257;63004;-65
2022/11/22 02:14:40;;;;;;;0.60;0.60;;;;;;;4.84;91.34;94972.59;29394;198;64006;-58
2022/11/22 02:15:12;;;;;;;0.50;0.50;;;;;;;4.86;91.11;94972.25;29395;203;63005;-57
2022/11/22 02:15:43;;;;;;;0.50;0.50;;;;;;;4.89;91.12;94975.12;29395;221;63009;-58
2022/11/22 02:16:14;;;;;;;0.60;0.60;;;;;;;4.90;91.04;94970.56;29395;238;63005;-57
2022/11/22 02:16:47;;;;;;;0.60;0.60;;;;;;;4.91;90.67;94972.94;29395;228;63009;-57
2022/11/22 02:17:18;;;;;;;0.60;0.60;;;;;;;4.93;90.83;94975.31;29395;242;63009;-58
2022/11/22 02:17:50;;;;;;;0.50;0.50;;;;;;;4.93;90.62;94969.94;29395;249;63009;-67
2022/11/22 02:18:21;;;;;;;0.60;0.60;;;;;;;4.92;90.92;94984.50;29395;211;63005;-57
2022/11/22 02:18:52;;;;;;;0.60;0.60;;;;;;;4.90;90.85;94975.94;29394;256;64013;-56
2022/11/22 02:19:42;;;;;;;0.50;0.50;;;;;;;4.87;90.89;94981.91;29396;197;63004;-57
2022/11/22 02:20:16;;;;;;;1.05;1.05;;;;;;;4.86;90.82;94983.00;29394;203;64013;-56
2022/11/22 02:20:47;;;;;;;0.50;0.50;;;;;;;4.87;91.18;94981.91;29395;234;63004;-57
2022/11/22 02:21:18;;;;;;;0.60;0.60;;;;;;;4.85;91.36;94984.91;29395;223;63008;-57
2022/11/22 02:21:57;;;;;;;0.57;0.57;;;;;;;4.84;91.43;94977.16;29395;215;63004;-57
2022/11/22 02:23:03;;;;;;;0.52;0.52;;;;;;;4.81;92.45;94981.25;29395;280;63009;-57
2022/11/22 02:24:20;;;;;;;0.50;0.50;;;;;;;4.82;92.10;94982.84;29395;317;63005;-57
2022/11/22 02:25:38;;;;;;;0.50;0.50;;;;;;;4.90;91.54;94970.56;29394;378;64013;-58
2022/11/22 02:26:11;;;;;;;0.60;0.60;;;;;;;4.95;91.39;94982.00;29395;202;63009;-57
2022/11/22 02:26:44;;;;;;;0.60;0.60;;;;;;;4.94;91.34;94990.34;29395;210;63004;-56
2022/11/22 02:27:15;;;;;;;0.40;0.40;;;;;;;4.91;91.59;94993.66;29395;268;63009;-57
2022/11/22 02:27:48;;;;;;;1.12;1.12;;;;;;;4.88;91.67;94994.25;29395;293;63004;-58
2022/11/22 02:28:20;;;;;;;0.50;0.50;;;;;;;4.88;91.53;94994.25;29395;203;63009;-67
2022/11/22 02:28:52;;;;;;;0.60;0.60;;;;;;;4.87;91.90;94998.03;29395;210;63004;-56
2022/11/22 02:29:24;;;;;;;0.50;0.50;;;;;;;4.91;91.93;94999.81;29394;289;64013;-58
2022/11/22 02:29:55;;;;;;;0.50;0.50;;;;;;;4.98;91.83;95004.78;29395;225;63005;-57
2022/11/22 02:30:27;;;;;;;0.60;0.60;;;;;;;4.95;91.92;95000.00;29395;212;63009;-57
2022/11/22 02:30:58;;;;;;;0.60;0.60;;;;;;;4.91;91.64;94999.81;29395;256;63005;-57
2022/11/22 02:31:45;;;;;;;0.50;0.50;;;;;;;4.88;92.05;95011.16;29395;215;63009;-57
2022/11/22 02:32:19;;;;;;;0.50;0.50;;;;;;;4.86;91.94;95007.19;29395;203;63005;-68
2022/11/22 02:32:51;;;;;;;0.60;0.60;;;;;;;4.84;92.57;95010.22;29395;207;63009;-69
2022/11/22 02:33:22;;;;;;;0.60;0.60;;;;;;;4.81;92.77;95008.13;29395;197;63005;-57
2022/11/22 02:33:53;;;;;;;0.50;0.50;;;;;;;4.79;93.06;95007.63;29395;205;63009;-57
2022/11/22 02:34:25;;;;;;;0.57;0.57;;;;;;;4.83;93.02;95007.81;29394;212;64009;-68
2022/11/22 02:35:00;;;;;;;0.60;0.60;;;;;;;4.86;92.90;95004.50;29394;216;64013;-57
2022/11/22 02:35:32;;;;;;;0.60;0.60;;;;;;;4.87;92.38;95003.41;29395;202;63009;-71
2022/11/22 02:36:04;;;;;;;0.60;0.60;;;;;;;4.90;92.62;95005.50;29395;229;63009;-58
2022/11/22 02:36:40;;;;;;;0.60;0.60;;;;;;;4.92;92.18;94997.94;29395;244;63014;-57
2022/11/22 02:37:16;;;;;;;1.37;1.37;;;;;;;4.91;92.10;95001.72;29395;249;63009;-58
2022/11/22 02:38:05;;;;;;;0.60;0.60;;;;;;;4.92;92.14;94998.72;29395;220;63005;-57
2022/11/22 02:38:36;;;;;;;0.60;0.60;;;;;;;4.90;91.97;95002.81;29394;425;64014;-57
2022/11/22 02:39:10;;;;;;;0.50;0.50;;;;;;;4.93;92.05;95012.94;29395;197;63005;-58
2022/11/22 02:39:45;;;;;;;0.60;0.60;;;;;;;4.97;92.14;94995.13;29395;196;63009;-57
2022/11/22 02:40:17;;;;;;;0.60;0.60;;;;;;;4.98;91.83;95004.78;29395;202;63005;-58
2022/11/22 02:41:10;;;;;;;0.60;0.60;;;;;;;4.94;91.76;94999.22;29395;243;63009;-58
2022/11/22 02:41:43;;;;;;;0.60;0.60;;;;;;;4.91;91.97;94999.81;29395;220;63004;-57
2022/11/22 02:42:15;;;;;;;0.70;0.70;;;;;;;4.88;92.31;94996.94;29395;202;63026;-66
2022/11/22 02:42:55;;;;;;;0.55;0.55;;;;;;;4.85;92.61;94994.88;29394;301;64009;-57
2022/11/22 02:43:34;;;;;;;0.60;0.60;;;;;;;4.82;92.60;95006.22;29395;229;63009;-69